Terminal Aerodrome Forecast
Issued by NWS

Home | Current Version | Previous Version | Text Only | Print | Product List | Glossary On
Versions: 1 2 3 4 5 6 7 8 9 10 11 12 13 14 15 16 17 18 19 20 21 22 23 24 25 26 27 28 29 30 31 32 33 34 35 36
000
FTUS41 KOKX 211140
TAFTEB
TAF
KTEB 211140Z 2112/2212 31004KT P6SM FEW050
     FM211500 30006KT P6SM FEW040 FEW080
      TEMPO 2119/2121 28009G16KT
     FM212200 27009KT P6SM SCT050
     FM220400 32004KT P6SM FEW060=

USA.gov is the U.S. government's official web portal to all federal, state and local government web resources and services.